Time;durP1;ratioP1;P1;durP2;ratioP2;P2;SDS_P1;SDS_P2;PMS_P1;PMS_P2;Temp;Humidity;BMP_temperature;BMP_pressure;BME280_temperature;BME280_humidity;BME280_pressure;Samples;Min_cycle;Max_cycle;Signal;HPM_P1;HPM_P2
2021/04/16 00:01:19;;;;;;;;;;;19.80;57.40;;;;;;5062968;28;1412;-67
2021/04/16 00:03:44;;;;;;;;;;;19.80;57.40;;;;;;5061810;28;1215;-67
2021/04/16 00:06:10;;;;;;;;;;;19.80;57.40;;;;;;5060052;28;1423;-67
2021/04/16 00:08:37;;;;;;;;;;;19.80;57.40;;;;;;5063859;28;1242;-67
2021/04/16 00:11:05;;;;;;;;;;;19.80;57.40;;;;;;5064554;28;1914;-67
2021/04/16 00:13:30;;;;;;;;;;;19.80;57.50;;;;;;5064446;28;1256;-67
2021/04/16 00:15:55;;;;;;;;;;;19.80;57.50;;;;;;5064097;28;1282;-67
2021/04/16 00:18:23;;;;;;;;;;;19.80;57.50;;;;;;5069759;28;1293;-67
2021/04/16 00:20:48;;;;;;;;;;;19.80;57.50;;;;;;5066317;28;1283;-68
2021/04/16 00:23:14;;;;;;;;;;;19.80;57.50;;;;;;5063858;28;1240;-68
2021/04/16 00:25:39;;;;;;;;;;;19.80;57.50;;;;;;5053216;28;1290;-68
2021/04/16 00:28:05;;;;;;;;;;;19.80;57.60;;;;;;5067920;28;1162;-68
2021/04/16 00:30:33;;;;;;;;;;;19.70;57.50;;;;;;5071287;28;1126;-68
2021/04/16 00:32:58;;;;;;;;;;;19.70;57.50;;;;;;5084370;28;1902;-68
2021/04/16 00:35:24;;;;;;;;;;;19.70;57.50;;;;;;5063113;28;1393;-69
2021/04/16 00:37:49;;;;;;;;;;;19.70;57.50;;;;;;5063775;28;1203;-69
2021/04/16 00:40:16;;;;;;;;;;;19.70;57.50;;;;;;5063091;28;1295;-68
2021/04/16 00:42:42;;;;;;;;;;;19.70;57.50;;;;;;5061992;28;1191;-69
2021/04/16 00:45:08;;;;;;;;;;;19.70;57.50;;;;;;5064956;28;1370;-69
2021/04/16 00:47:33;;;;;;;;;;;19.70;57.50;;;;;;5064349;28;1049;-68
2021/04/16 00:50:01;;;;;;;;;;;19.70;57.60;;;;;;5059573;28;1156;-69
2021/04/16 00:52:27;;;;;;;;;;;19.70;57.60;;;;;;5061974;28;1988;-68
2021/04/16 00:54:53;;;;;;;;;;;19.70;57.60;;;;;;5061405;28;1295;-69
2021/04/16 00:57:18;;;;;;;;;;;19.70;57.60;;;;;;5060520;28;1425;-69
2021/04/16 00:59:46;;;;;;;;;;;19.70;57.60;;;;;;5064061;28;1180;-68
2021/04/16 01:02:11;;;;;;;;;;;19.70;57.60;;;;;;5064996;28;1231;-68
2021/04/16 01:04:36;;;;;;;;;;;19.70;57.60;;;;;;5064107;28;1367;-69
2021/04/16 01:07:02;;;;;;;;;;;19.70;57.60;;;;;;5071324;28;1207;-69
2021/04/16 01:09:28;;;;;;;;;;;19.70;57.60;;;;;;5067220;28;1254;-69
2021/04/16 01:11:53;;;;;;;;;;;19.70;57.60;;;;;;5067600;28;1965;-69
2021/04/16 01:14:19;;;;;;;;;;;19.70;57.60;;;;;;5064835;28;1478;-69
2021/04/16 01:16:44;;;;;;;;;;;19.70;57.60;;;;;;5068511;28;1250;-69
2021/04/16 01:19:36;;;;;;;;;;;19.70;57.70;;;;;;5068588;28;1064;-69
2021/04/16 01:22:06;;;;;;;;;;;19.70;57.60;;;;;;5052104;28;1370;-69
2021/04/16 01:24:32;;;;;;;;;;;19.70;57.70;;;;;;5063831;28;1311;-68
2021/04/16 01:26:57;;;;;;;;;;;19.70;58.30;;;;;;5065492;28;1190;-70
2021/04/16 01:29:23;;;;;;;;;;;19.60;57.60;;;;;;5063939;28;1215;-69
2021/04/16 01:31:48;;;;;;;;;;;19.60;57.60;;;;;;5066589;28;1985;-69
2021/04/16 01:34:22;;;;;;;;;;;19.60;57.70;;;;;;5064172;28;1333;-70
2021/04/16 01:36:49;;;;;;;;;;;19.60;57.70;;;;;;5069831;28;1197;-70
2021/04/16 01:39:15;;;;;;;;;;;19.60;57.70;;;;;;5078772;28;1227;-70
2021/04/16 01:41:40;;;;;;;;;;;19.60;57.70;;;;;;5069510;28;1238;-70
2021/04/16 01:44:10;;;;;;;;;;;19.60;57.70;;;;;;5074752;28;1134;-69
2021/04/16 01:46:52;;;;;;;;;;;19.60;57.60;;;;;;5073559;28;1192;-68
2021/04/16 01:49:18;;;;;;;;;;;19.60;57.60;;;;;;5072819;28;1131;-69
2021/04/16 01:51:43;;;;;;;;;;;19.70;57.70;;;;;;5080656;28;1890;-69
2021/04/16 01:54:10;;;;;;;;;;;19.70;57.60;;;;;;5073872;28;1249;-70
2021/04/16 01:56:36;;;;;;;;;;;19.70;57.60;;;;;;5074725;28;1191;-70
2021/04/16 01:59:01;;;;;;;;;;;19.70;57.60;;;;;;5074921;28;968;-69
2021/04/16 02:01:27;;;;;;;;;;;19.70;57.60;;;;;;5074966;28;1057;-70
2021/04/16 02:03:52;;;;;;;;;;;19.70;57.50;;;;;;5073883;28;1142;-70
2021/04/16 02:06:18;;;;;;;;;;;19.70;57.50;;;;;;5075242;28;1240;-70
2021/04/16 02:08:43;;;;;;;;;;;19.70;57.50;;;;;;5074175;28;1122;-70
2021/04/16 02:11:08;;;;;;;;;;;19.70;57.40;;;;;;5074659;28;1913;-69
2021/04/16 02:13:34;;;;;;;;;;;19.70;58.00;;;;;;5073487;28;1164;-70
2021/04/16 02:15:59;;;;;;;;;;;19.70;57.40;;;;;;5074065;28;1271;-69
2021/04/16 02:18:25;;;;;;;;;;;19.70;57.40;;;;;;5072738;28;1146;-68
2021/04/16 02:20:50;;;;;;;;;;;19.70;57.40;;;;;;5074476;28;1126;-69
2021/04/16 02:23:15;;;;;;;;;;;19.70;57.40;;;;;;5074001;28;1142;-70
2021/04/16 02:25:41;;;;;;;;;;;19.70;57.40;;;;;;5065003;28;1226;-70
2021/04/16 02:28:07;;;;;;;;;;;19.70;57.90;;;;;;5070524;28;1036;-70
2021/04/16 02:30:33;;;;;;;;;;;19.70;57.30;;;;;;5063095;28;1056;-70
2021/04/16 02:32:58;;;;;;;;;;;19.70;57.30;;;;;;5066550;28;1947;-70
2021/04/16 02:35:24;;;;;;;;;;;19.80;57.40;;;;;;5064258;28;1341;-70
2021/04/16 02:37:49;;;;;;;;;;;19.80;57.30;;;;;;5073520;28;1141;-70
2021/04/16 02:40:15;;;;;;;;;;;19.80;57.30;;;;;;5073136;28;1010;-70
2021/04/16 02:42:44;;;;;;;;;;;19.80;57.30;;;;;;5072651;28;952;-70
2021/04/16 02:45:10;;;;;;;;;;;19.90;57.20;;;;;;5072842;28;1302;-69
2021/04/16 02:47:35;;;;;;;;;;;20.00;57.10;;;;;;5073490;28;1001;-69
2021/04/16 02:50:01;;;;;;;;;;;20.10;56.90;;;;;;5072678;28;1064;-68
2021/04/16 02:52:29;;;;;;;;;;;20.20;56.70;;;;;;5073486;28;1902;-68
2021/04/16 02:54:54;;;;;;;;;;;20.30;56.50;;;;;;5072700;28;1357;-69
2021/04/16 02:57:20;;;;;;;;;;;20.40;56.20;;;;;;5072625;28;1106;-69
2021/04/16 02:59:46;;;;;;;;;;;20.50;56.00;;;;;;5073516;28;1150;-68
2021/04/16 03:02:11;;;;;;;;;;;20.60;55.80;;;;;;5073475;28;1091;-69
2021/04/16 03:04:37;;;;;;;;;;;20.70;55.60;;;;;;5072091;28;1381;-69
2021/04/16 03:07:02;;;;;;;;;;;20.70;55.40;;;;;;5072839;28;1287;-68
2021/04/16 03:09:27;;;;;;;;;;;20.80;55.20;;;;;;5072916;28;1091;-69
2021/04/16 03:11:53;;;;;;;;;;;20.90;55.10;;;;;;5088705;28;1969;-68
2021/04/16 03:14:18;;;;;;;;;;;20.90;55.00;;;;;;5073024;28;1368;-69
2021/04/16 03:16:44;;;;;;;;;;;21.00;54.90;;;;;;5089043;28;1099;-68
2021/04/16 03:19:12;;;;;;;;;;;21.00;54.70;;;;;;5072617;28;1125;-69
2021/04/16 03:21:38;;;;;;;;;;;21.10;54.70;;;;;;5072577;28;1034;-68
2021/04/16 03:24:03;;;;;;;;;;;21.10;54.60;;;;;;5073221;28;1078;-70
2021/04/16 03:26:29;;;;;;;;;;;21.10;54.50;;;;;;5085373;28;1273;-70
2021/04/16 03:28:55;;;;;;;;;;;21.20;54.50;;;;;;5077741;28;1177;-70
2021/04/16 03:31:20;;;;;;;;;;;21.20;54.40;;;;;;5072809;28;1898;-70
2021/04/16 03:33:46;;;;;;;;;;;21.20;54.30;;;;;;5088547;28;1141;-70
2021/04/16 03:36:11;;;;;;;;;;;21.30;54.30;;;;;;5071862;28;1382;-70
2021/04/16 03:38:36;;;;;;;;;;;21.30;54.30;;;;;;5072221;28;1064;-70
2021/04/16 03:41:02;;;;;;;;;;;21.20;54.20;;;;;;5072774;28;1134;-70
2021/04/16 03:43:27;;;;;;;;;;;21.30;54.20;;;;;;5071676;28;784;-68
2021/04/16 03:45:53;;;;;;;;;;;21.30;54.20;;;;;;5057644;28;2269;-68
2021/04/16 03:48:18;;;;;;;;;;;21.30;54.20;;;;;;5065320;28;1060;-67
2021/04/16 03:50:44;;;;;;;;;;;21.30;54.10;;;;;;5058344;28;1079;-67
2021/04/16 03:53:09;;;;;;;;;;;21.30;54.20;;;;;;5069943;28;1890;-66
2021/04/16 03:55:35;;;;;;;;;;;21.30;54.20;;;;;;5066225;28;1384;-66
2021/04/16 03:58:01;;;;;;;;;;;21.30;54.20;;;;;;5072782;28;1071;-67
2021/04/16 04:00:29;;;;;;;;;;;21.30;54.20;;;;;;5068072;28;1118;-66
2021/04/16 04:02:55;;;;;;;;;;;21.30;54.30;;;;;;5068739;28;1099;-66
2021/04/16 04:05:20;;;;;;;;;;;21.30;54.30;;;;;;5071295;28;1276;-66
2021/04/16 04:07:46;;;;;;;;;;;21.30;54.30;;;;;;5070765;28;1158;-67
2021/04/16 04:10:11;;;;;;;;;;;21.30;54.30;;;;;;5086470;28;1142;-67
2021/04/16 04:12:37;;;;;;;;;;;21.30;54.40;;;;;;5071385;28;1898;-67
2021/04/16 04:15:03;;;;;;;;;;;21.30;54.40;;;;;;5071493;28;1277;-67
2021/04/16 04:17:29;;;;;;;;;;;21.30;54.50;;;;;;5086648;28;1148;-68
2021/04/16 04:19:55;;;;;;;;;;;21.20;54.40;;;;;;5068996;28;1090;-68
2021/04/16 04:22:20;;;;;;;;;;;21.20;54.50;;;;;;5087755;28;1193;-66
2021/04/16 04:24:46;;;;;;;;;;;21.20;54.50;;;;;;5071306;28;1280;-70
2021/04/16 04:27:11;;;;;;;;;;;21.20;54.60;;;;;;5071320;28;1121;-69
2021/04/16 04:29:37;;;;;;;;;;;21.20;54.60;;;;;;5072133;28;1090;-69
2021/04/16 04:32:02;;;;;;;;;;;21.20;54.70;;;;;;5088027;28;1955;-70
2021/04/16 04:34:28;;;;;;;;;;;21.10;54.70;;;;;;5072380;28;1287;-69
2021/04/16 04:36:54;;;;;;;;;;;21.10;54.70;;;;;;5087503;28;1075;-69
2021/04/16 04:39:20;;;;;;;;;;;21.10;54.70;;;;;;5071249;28;1078;-69
2021/04/16 04:41:45;;;;;;;;;;;21.10;54.80;;;;;;5076418;28;1110;-69
2021/04/16 04:44:11;;;;;;;;;;;21.10;54.90;;;;;;5076332;28;1180;-70
2021/04/16 04:46:36;;;;;;;;;;;21.00;54.90;;;;;;5076550;28;1162;-70
2021/04/16 04:49:02;;;;;;;;;;;21.00;54.90;;;;;;5075176;28;1042;-69
2021/04/16 04:51:28;;;;;;;;;;;21.00;54.90;;;;;;5091665;28;1897;-70
2021/04/16 04:53:53;;;;;;;;;;;21.00;55.00;;;;;;5091317;28;1071;-70
2021/04/16 04:56:18;;;;;;;;;;;21.00;55.00;;;;;;5075983;28;1678;-70
2021/04/16 04:58:44;;;;;;;;;;;21.00;55.00;;;;;;5074478;28;1066;-70
2021/04/16 05:01:09;;;;;;;;;;;21.00;55.10;;;;;;5076434;28;1114;-70
2021/04/16 05:03:35;;;;;;;;;;;20.90;55.10;;;;;;5075820;28;1047;-70
2021/04/16 05:06:00;;;;;;;;;;;20.90;55.20;;;;;;5091409;28;1250;-69
2021/04/16 05:08:26;;;;;;;;;;;20.90;55.20;;;;;;5073837;28;1095;-70
2021/04/16 05:10:51;;;;;;;;;;;20.90;55.20;;;;;;5075688;28;1134;-70
2021/04/16 05:13:16;;;;;;;;;;;20.90;55.20;;;;;;5074079;28;1910;-70
2021/04/16 05:15:42;;;;;;;;;;;20.90;55.20;;;;;;5074614;28;1228;-69
2021/04/16 05:18:07;;;;;;;;;;;20.90;55.20;;;;;;5074548;28;1075;-69
2021/04/16 05:20:33;;;;;;;;;;;20.90;55.20;;;;;;5075421;28;1126;-69
2021/04/16 05:22:58;;;;;;;;;;;21.00;55.20;;;;;;5074954;28;1059;-68
2021/04/16 05:25:24;;;;;;;;;;;21.00;55.20;;;;;;5075195;28;1199;-69
2021/04/16 05:27:49;;;;;;;;;;;21.00;55.10;;;;;;5074197;28;1087;-69
2021/04/16 05:30:15;;;;;;;;;;;21.00;55.10;;;;;;5075546;28;1150;-70
2021/04/16 05:32:40;;;;;;;;;;;21.00;55.10;;;;;;5074133;28;1902;-66
2021/04/16 05:35:06;;;;;;;;;;;21.00;55.10;;;;;;5058363;28;1420;-67
2021/04/16 05:37:32;;;;;;;;;;;21.00;55.10;;;;;;5071640;28;1079;-66
2021/04/16 05:39:57;;;;;;;;;;;21.00;55.10;;;;;;5073996;28;1016;-66
2021/04/16 05:42:22;;;;;;;;;;;21.00;55.10;;;;;;5065055;28;1082;-66
2021/04/16 05:44:48;;;;;;;;;;;21.00;55.10;;;;;;5073517;28;1273;-67
2021/04/16 05:47:13;;;;;;;;;;;21.00;55.10;;;;;;5073946;28;1133;-66
2021/04/16 05:49:41;;;;;;;;;;;21.00;55.20;;;;;;5074868;28;1126;-66
2021/04/16 05:52:07;;;;;;;;;;;21.00;55.20;;;;;;5074869;28;1961;-66
2021/04/16 05:54:32;;;;;;;;;;;21.00;55.20;;;;;;5074806;28;1395;-66
2021/04/16 05:56:58;;;;;;;;;;;20.90;55.20;;;;;;5074864;28;1081;-66
2021/04/16 05:59:23;;;;;;;;;;;20.90;55.20;;;;;;5066260;28;1522;-67
2021/04/16 06:01:49;;;;;;;;;;;20.90;55.20;;;;;;5067422;28;1690;-67
2021/04/16 06:04:16;;;;;;;;;;;20.90;55.20;;;;;;5069612;28;1134;-67
2021/04/16 06:06:41;;;;;;;;;;;20.90;55.30;;;;;;5090154;28;1338;-67
2021/04/16 06:09:06;;;;;;;;;;;20.90;55.30;;;;;;5072612;28;1234;-67
2021/04/16 06:11:32;;;;;;;;;;;20.90;55.30;;;;;;5059784;28;1964;-69
2021/04/16 06:13:57;;;;;;;;;;;20.90;55.40;;;;;;5072913;28;1173;-69
2021/04/16 06:16:23;;;;;;;;;;;20.90;55.40;;;;;;5073960;28;1229;-68
2021/04/16 06:18:50;;;;;;;;;;;20.90;55.40;;;;;;5074291;28;1056;-67
2021/04/16 06:21:18;;;;;;;;;;;20.80;55.40;;;;;;5074056;28;1071;-69
2021/04/16 06:23:43;;;;;;;;;;;20.80;55.40;;;;;;5073272;28;1165;-68
2021/04/16 06:26:09;;;;;;;;;;;20.80;55.50;;;;;;5072422;28;1306;-69
2021/04/16 06:28:34;;;;;;;;;;;20.80;55.50;;;;;;5072040;28;1162;-69
2021/04/16 06:31:03;;;;;;;;;;;20.80;55.60;;;;;;5073284;28;1055;-68
2021/04/16 06:33:29;;;;;;;;;;;20.80;55.60;;;;;;5071746;28;1906;-69
2021/04/16 06:36:01;;;;;;;;;;;20.80;55.60;;;;;;5070114;28;1354;-69
2021/04/16 06:38:29;;;;;;;;;;;20.70;55.60;;;;;;5072351;28;1085;-69
2021/04/16 06:40:55;;;;;;;;;;;20.80;55.70;;;;;;5072017;28;1039;-70
2021/04/16 06:43:21;;;;;;;;;;;20.80;55.70;;;;;;5071246;28;1071;-70
2021/04/16 06:45:50;;;;;;;;;;;20.70;55.70;;;;;;5071352;28;1220;-69
2021/04/16 06:48:15;;;;;;;;;;;20.70;55.70;;;;;;5068213;28;2166;-69
2021/04/16 06:50:41;;;;;;;;;;;20.70;55.80;;;;;;5087172;28;1238;-69
2021/04/16 06:53:09;;;;;;;;;;;20.70;55.80;;;;;;5067376;28;1879;-68
2021/04/16 06:55:39;;;;;;;;;;;20.70;55.80;;;;;;5073549;28;1266;-69
2021/04/16 06:58:05;;;;;;;;;;;20.70;55.80;;;;;;5071376;28;1118;-68
2021/04/16 07:00:34;;;;;;;;;;;20.70;55.80;;;;;;5072026;28;1114;-68
2021/04/16 07:02:59;;;;;;;;;;;20.70;55.90;;;;;;5072350;28;1067;-69
2021/04/16 07:05:29;;;;;;;;;;;20.70;55.90;;;;;;5073102;28;1353;-68
2021/04/16 07:07:54;;;;;;;;;;;20.60;55.80;;;;;;5071022;28;1070;-69
2021/04/16 07:10:24;;;;;;;;;;;20.60;55.90;;;;;;5088942;28;1067;-69
2021/04/16 07:12:51;;;;;;;;;;;20.60;55.90;;;;;;5088687;28;1965;-69
2021/04/16 07:15:18;;;;;;;;;;;20.60;55.90;;;;;;5072992;28;1292;-69
2021/04/16 07:17:43;;;;;;;;;;;20.60;55.90;;;;;;5087798;28;1142;-69
2021/04/16 07:20:10;;;;;;;;;;;20.60;55.90;;;;;;5088708;28;1106;-69
2021/04/16 07:22:40;;;;;;;;;;;20.60;56.00;;;;;;5089008;28;1055;-69
2021/04/16 07:25:23;;;;;;;;;;;20.60;56.00;;;;;;5084729;28;1990;-69
2021/04/16 07:27:58;;;;;;;;;;;20.60;56.10;;;;;;5082681;28;1068;-69
2021/04/16 07:30:25;;;;;;;;;;;20.60;56.10;;;;;;5087363;28;1040;-70
2021/04/16 07:32:51;;;;;;;;;;;20.50;56.60;;;;;;5065918;28;1969;-70
2021/04/16 07:35:24;;;;;;;;;;;20.50;56.10;;;;;;5072372;28;1276;-69
2021/04/16 07:38:19;;;;;;;;;;;20.50;56.10;;;;;;5071633;28;1083;-70
2021/04/16 07:40:44;;;;;;;;;;;20.50;56.10;;;;;;5059521;28;1178;-69
2021/04/16 07:43:14;;;;;;;;;;;20.50;56.10;;;;;;5073140;28;1055;-69
2021/04/16 07:45:41;;;;;;;;;;;20.50;56.10;;;;;;5071238;28;1337;-69
2021/04/16 07:48:19;;;;;;;;;;;20.50;56.20;;;;;;5072536;28;1158;-69
2021/04/16 07:50:45;;;;;;;;;;;20.50;56.20;;;;;;5067829;28;1096;-69
2021/04/16 07:53:25;;;;;;;;;;;20.50;56.20;;;;;;5087759;28;1898;-69
2021/04/16 07:56:07;;;;;;;;;;;20.40;56.20;;;;;;5072301;28;1284;-69
2021/04/16 07:58:33;;;;;;;;;;;20.50;56.30;;;;;;5087059;28;1212;-69
2021/04/16 08:01:00;;;;;;;;;;;20.40;56.30;;;;;;5072091;28;1130;-68
2021/04/16 08:03:26;;;;;;;;;;;20.40;56.30;;;;;;5079652;28;1828;-68
2021/04/16 08:05:52;;;;;;;;;;;20.40;56.30;;;;;;5070487;28;1287;-68
2021/04/16 08:08:17;;;;;;;;;;;20.40;56.40;;;;;;5060710;28;2210;-68
2021/04/16 08:10:43;;;;;;;;;;;20.40;56.40;;;;;;5068937;28;1572;-68
2021/04/16 08:13:10;;;;;;;;;;;20.40;56.40;;;;;;5065473;28;1910;-68
2021/04/16 08:15:35;;;;;;;;;;;20.40;56.40;;;;;;5060062;28;1213;-69
2021/04/16 08:18:13;;;;;;;;;;;20.40;56.40;;;;;;5065400;28;1587;-68
2021/04/16 08:20:44;;;;;;;;;;;20.40;56.50;;;;;;5059323;28;1159;-69
2021/04/16 08:23:10;;;;;;;;;;;20.40;56.50;;;;;;5065228;28;1992;-70
2021/04/16 08:25:40;;;;;;;;;;;20.40;56.50;;;;;;5072629;28;1569;-68
2021/04/16 08:28:09;;;;;;;;;;;20.40;56.50;;;;;;5070949;28;1134;-68
2021/04/16 08:30:42;;;;;;;;;;;20.30;56.50;;;;;;5077787;28;1540;-68
2021/04/16 08:33:23;;;;;;;;;;;20.30;56.50;;;;;;5062192;28;1953;-68
2021/04/16 08:35:48;;;;;;;;;;;20.30;56.50;;;;;;5071891;28;1282;-69
2021/04/16 08:38:14;;;;;;;;;;;20.30;56.50;;;;;;5071205;28;1130;-69
2021/04/16 08:40:41;;;;;;;;;;;20.30;56.60;;;;;;5069670;28;1251;-70
2021/04/16 08:43:07;;;;;;;;;;;20.30;56.60;;;;;;5071486;28;1049;-68
2021/04/16 08:45:34;;;;;;;;;;;20.30;56.60;;;;;;5087298;28;1286;-69
2021/04/16 08:47:59;;;;;;;;;;;20.30;56.60;;;;;;5073666;28;1064;-69
2021/04/16 08:50:34;;;;;;;;;;;20.30;56.60;;;;;;5067574;28;2037;-69
2021/04/16 08:53:01;;;;;;;;;;;20.30;56.70;;;;;;5075622;28;1947;-69
2021/04/16 08:55:37;;;;;;;;;;;20.30;56.70;;;;;;5065701;28;1977;-68
2021/04/16 08:58:04;;;;;;;;;;;20.30;56.70;;;;;;5065961;28;1106;-69
2021/04/16 09:00:31;;;;;;;;;;;20.20;56.70;;;;;;5069065;28;1209;-69
2021/04/16 09:02:58;;;;;;;;;;;20.20;56.70;;;;;;5061014;28;1428;-68
2021/04/16 09:05:24;;;;;;;;;;;20.30;56.70;;;;;;5067711;28;2073;-69
2021/04/16 09:08:09;;;;;;;;;;;20.20;56.70;;;;;;5068551;28;1184;-69
2021/04/16 09:10:34;;;;;;;;;;;20.30;56.80;;;;;;5060995;28;1813;-69
2021/04/16 09:13:00;;;;;;;;;;;20.20;56.80;;;;;;5070031;28;1967;-69
2021/04/16 09:15:25;;;;;;;;;;;20.20;56.80;;;;;;5071151;28;1264;-69
2021/04/16 09:17:51;;;;;;;;;;;20.20;56.80;;;;;;5068999;28;1388;-69
2021/04/16 09:20:35;;;;;;;;;;;20.20;56.80;;;;;;5070589;28;1125;-68
2021/04/16 09:23:04;;;;;;;;;;;20.20;56.80;;;;;;5070894;28;1130;-70
2021/04/16 09:25:29;;;;;;;;;;;20.20;56.90;;;;;;5068845;28;1319;-69
2021/04/16 09:27:55;;;;;;;;;;;20.20;56.90;;;;;;5064252;28;1755;-69
2021/04/16 09:30:21;;;;;;;;;;;20.20;56.90;;;;;;5072284;28;1539;-69
2021/04/16 09:32:47;;;;;;;;;;;20.10;56.90;;;;;;5065841;28;1902;-69
2021/04/16 09:35:19;;;;;;;;;;;20.10;56.90;;;;;;5064757;28;1530;-69
2021/04/16 09:37:48;;;;;;;;;;;20.10;56.90;;;;;;5064563;28;1598;-70
2021/04/16 09:40:13;;;;;;;;;;;20.10;56.90;;;;;;5064045;28;1233;-69
2021/04/16 09:42:42;;;;;;;;;;;20.10;57.00;;;;;;5080313;28;1620;-68
2021/04/16 09:45:09;;;;;;;;;;;20.10;57.00;;;;;;5064519;28;1621;-69
2021/04/16 09:48:02;;;;;;;;;;;20.10;57.10;;;;;;5066760;28;1263;-68
2021/04/16 09:50:29;;;;;;;;;;;20.10;57.10;;;;;;5066529;28;1208;-69
2021/04/16 09:53:10;;;;;;;;;;;20.10;57.60;;;;;;5069954;28;1898;-70
2021/04/16 09:55:49;;;;;;;;;;;20.10;57.10;;;;;;5073970;28;1137;-69
2021/04/16 09:58:39;;;;;;;;;;;20.10;57.20;;;;;;5083403;22;2060;-66
2021/04/16 10:01:06;;;;;;;;;;;20.10;57.10;;;;;;5065035;28;1121;-65
2021/04/16 10:03:31;;;;;;;;;;;20.10;57.20;;;;;;5073501;28;885;-65
2021/04/16 10:05:57;;;;;;;;;;;20.10;57.20;;;;;;5072897;28;1186;-67
2021/04/16 10:08:26;;;;;;;;;;;20.10;57.20;;;;;;5071711;28;1252;-67
2021/04/16 10:10:52;;;;;;;;;;;20.00;57.20;;;;;;5072969;28;1071;-65
2021/04/16 10:13:24;;;;;;;;;;;20.00;57.20;;;;;;5074060;28;1902;-67
2021/04/16 10:15:50;;;;;;;;;;;20.00;57.20;;;;;;5072581;28;2008;-67
2021/04/16 10:18:51;;;;;;;;;;;20.00;57.20;;;;;;5072863;28;1391;-66
2021/04/16 10:21:17;;;;;;;;;;;20.00;57.20;;;;;;5008834;28;1295;-67
2021/04/16 10:23:46;;;;;;;;;;;20.00;57.20;;;;;;5053314;28;1399;-67
2021/04/16 10:33:06;;;;;;;;;;;20.10;57.20;;;;;;4991989;28;1956;-67
2021/04/16 10:42:32;;;;;;;;;;;20.00;57.10;;;;;;5074255;28;1039;-67
2021/04/16 10:47:36;;;;;;;;;;;20.00;57.10;;;;;;5074141;28;1075;-68
2021/04/16 11:01:29;;;;;;;;;;;20.10;57.10;;;;;;5073456;28;1285;-65
2021/04/16 11:07:00;;;;;;;;;;;20.10;57.10;;;;;;5073699;28;1059;-67
2021/04/16 12:41:24;;;;;;;;;;;20.90;55.20;;;;;;5078235;28;904;-66
2021/04/16 12:43:50;;;;;;;;;;;21.00;55.10;;;;;;5057601;28;1957;-66
2021/04/16 12:46:17;;;;;;;;;;;21.00;55.00;;;;;;5072065;28;957;-66
2021/04/16 12:48:42;;;;;;;;;;;21.10;55.00;;;;;;5071147;28;1250;-65
2021/04/16 12:51:08;;;;;;;;;;;21.10;54.90;;;;;;5071237;28;1001;-65
2021/04/16 12:53:33;;;;;;;;;;;21.10;54.80;;;;;;5071078;28;1957;-65
2021/04/16 12:55:58;;;;;;;;;;;21.10;54.80;;;;;;5071126;28;1218;-66
2021/04/16 12:58:33;;;;;;;;;;;21.10;54.70;;;;;;5071898;28;1188;-66
2021/04/16 13:01:02;;;;;;;;;;;21.10;54.70;;;;;;5072281;28;1250;-66
2021/04/16 13:03:38;;;;;;;;;;;21.10;54.70;;;;;;5076076;28;1115;-66
2021/04/16 13:06:04;;;;;;;;;;;21.20;54.70;;;;;;5074838;28;1162;-66
2021/04/16 13:08:29;;;;;;;;;;;21.20;54.70;;;;;;5074610;28;1191;-66
2021/04/16 13:10:54;;;;;;;;;;;21.20;54.70;;;;;;5075927;28;1384;-66
2021/04/16 13:13:20;;;;;;;;;;;21.20;54.70;;;;;;5075901;28;1945;-66
2021/04/16 13:15:47;;;;;;;;;;;21.20;54.60;;;;;;5075768;28;1148;-66
2021/04/16 13:18:16;;;;;;;;;;;21.20;54.70;;;;;;5075391;28;1208;-67
2021/04/16 13:20:43;;;;;;;;;;;21.20;54.70;;;;;;5074529;28;1083;-66
2021/04/16 13:23:09;;;;;;;;;;;21.20;54.70;;;;;;5075874;28;1107;-67
2021/04/16 13:25:34;;;;;;;;;;;21.20;54.70;;;;;;5075634;28;1071;-67
2021/04/16 13:28:00;;;;;;;;;;;21.20;54.70;;;;;;5075263;28;1358;-67
2021/04/16 13:30:26;;;;;;;;;;;21.20;54.70;;;;;;5073078;28;2438;-67
2021/04/16 13:32:52;;;;;;;;;;;21.20;54.70;;;;;;5075515;28;1963;-67
2021/04/16 13:35:23;;;;;;;;;;;21.20;54.80;;;;;;5074315;28;1138;-67
2021/04/16 13:37:49;;;;;;;;;;;21.20;54.70;;;;;;5071212;28;1895;-67
2021/04/16 13:40:14;;;;;;;;;;;21.20;54.80;;;;;;5073203;28;948;-66
2021/04/16 13:42:40;;;;;;;;;;;21.10;54.70;;;;;;5074240;28;1137;-66
2021/04/16 13:45:06;;;;;;;;;;;21.20;54.80;;;;;;5075321;28;1067;-66
2021/04/16 13:47:31;;;;;;;;;;;21.10;54.80;;;;;;5073735;28;1152;-67
2021/04/16 13:49:57;;;;;;;;;;;21.10;54.90;;;;;;5074103;28;1233;-67
2021/04/16 13:52:23;;;;;;;;;;;21.10;54.90;;;;;;5074028;28;1902;-67
2021/04/16 13:54:48;;;;;;;;;;;21.10;55.00;;;;;;5074052;28;1166;-67
2021/04/16 13:57:15;;;;;;;;;;;21.10;55.00;;;;;;5075059;28;1150;-66
2021/04/16 13:59:47;;;;;;;;;;;21.10;55.00;;;;;;5069165;28;1323;-65
2021/04/16 14:02:14;;;;;;;;;;;21.00;55.00;;;;;;5065405;28;1198;-65
2021/04/16 14:04:41;;;;;;;;;;;21.00;55.10;;;;;;5067361;28;1201;-66
2021/04/16 14:07:07;;;;;;;;;;;21.00;55.10;;;;;;5074589;28;1265;-65
2021/04/16 14:09:33;;;;;;;;;;;21.00;55.10;;;;;;5074878;28;1186;-65
2021/04/16 14:11:58;;;;;;;;;;;21.00;55.10;;;;;;5059041;28;1910;-65
2021/04/16 14:14:25;;;;;;;;;;;21.00;55.10;;;;;;5065806;28;1102;-65
2021/04/16 14:16:58;;;;;;;;;;;21.00;55.10;;;;;;5073803;28;1175;-65
2021/04/16 14:19:23;;;;;;;;;;;21.00;55.10;;;;;;5074388;28;1188;-66
2021/04/16 14:21:50;;;;;;;;;;;21.10;55.10;;;;;;5073656;28;1104;-65
2021/04/16 14:24:15;;;;;;;;;;;21.10;55.10;;;;;;5073735;28;1092;-65
2021/04/16 14:26:44;;;;;;;;;;;21.10;55.10;;;;;;5074761;28;1067;-66
2021/04/16 14:29:10;;;;;;;;;;;21.10;55.00;;;;;;5073038;28;1211;-66
2021/04/16 14:31:38;;;;;;;;;;;21.10;55.00;;;;;;5073700;28;1953;-65
2021/04/16 14:34:04;;;;;;;;;;;21.10;55.00;;;;;;5074744;28;1071;-66
2021/04/16 14:36:29;;;;;;;;;;;21.10;55.00;;;;;;5074398;28;1039;-65
2021/04/16 14:38:55;;;;;;;;;;;21.10;55.00;;;;;;5074440;28;1286;-65
2021/04/16 14:41:23;;;;;;;;;;;21.10;55.00;;;;;;5074199;28;1205;-66
2021/04/16 14:43:48;;;;;;;;;;;21.10;55.00;;;;;;5074504;28;1134;-65
2021/04/16 14:46:13;;;;;;;;;;;21.10;55.00;;;;;;5074290;28;1170;-65
2021/04/16 14:48:39;;;;;;;;;;;21.10;55.00;;;;;;5073925;28;1330;-66
2021/04/16 14:51:05;;;;;;;;;;;21.10;55.00;;;;;;5072894;28;1178;-66
2021/04/16 14:53:34;;;;;;;;;;;21.10;55.00;;;;;;5073216;28;1975;-65
2021/04/16 14:56:00;;;;;;;;;;;21.10;55.00;;;;;;5073900;28;1173;-66
2021/04/16 14:58:30;;;;;;;;;;;21.10;55.00;;;;;;5053018;28;1334;-65
2021/04/16 15:00:55;;;;;;;;;;;21.10;55.00;;;;;;5073727;28;1209;-65
2021/04/16 15:03:21;;;;;;;;;;;21.10;55.10;;;;;;5073996;28;1106;-66
2021/04/16 15:05:46;;;;;;;;;;;21.10;55.10;;;;;;5073459;28;1515;-66
2021/04/16 15:08:16;;;;;;;;;;;21.10;55.10;;;;;;5073590;28;1302;-66
2021/04/16 15:10:45;;;;;;;;;;;21.10;55.20;;;;;;5072458;28;1056;-65
2021/04/16 15:13:11;;;;;;;;;;;21.10;55.20;;;;;;5072358;28;1963;-65
2021/04/16 15:15:37;;;;;;;;;;;21.00;55.10;;;;;;5072514;28;1087;-65
2021/04/16 15:18:09;;;;;;;;;;;21.00;55.20;;;;;;5073518;28;1564;-65
2021/04/16 15:20:35;;;;;;;;;;;21.00;55.20;;;;;;5073143;28;1150;-66
2021/04/16 15:23:00;;;;;;;;;;;21.00;55.30;;;;;;5073465;28;1162;-66
2021/04/16 15:25:25;;;;;;;;;;;21.00;55.30;;;;;;5073020;28;1020;-65
2021/04/16 15:27:52;;;;;;;;;;;21.00;55.30;;;;;;5065944;28;1943;-64
2021/04/16 15:30:19;;;;;;;;;;;21.00;55.30;;;;;;5066502;28;1636;-64
2021/04/16 15:32:44;;;;;;;;;;;21.00;55.40;;;;;;5066016;28;1906;-64
2021/04/16 15:46:27;;;;;;;;;;;20.90;55.50;;;;;;5070596;28;1132;-65
2021/04/16 15:48:52;;;;;;;;;;;20.90;55.60;;;;;;5065620;28;1400;-65
2021/04/16 15:51:19;;;;;;;;;;;20.90;55.60;;;;;;5071537;28;1092;-65
2021/04/16 15:53:45;;;;;;;;;;;20.80;55.60;;;;;;5072772;28;1902;-66
2021/04/16 15:56:11;;;;;;;;;;;20.80;55.70;;;;;;5072042;28;966;-65
2021/04/16 15:58:36;;;;;;;;;;;20.80;55.70;;;;;;5082588;22;3617;-70
2021/04/16 16:01:04;;;;;;;;;;;20.80;55.70;;;;;;5030160;28;1164;-70
2021/04/16 16:03:29;;;;;;;;;;;20.80;55.80;;;;;;5030443;28;1265;-70
2021/04/16 16:05:54;;;;;;;;;;;20.70;55.80;;;;;;5032090;28;1170;-71
2021/04/16 16:08:20;;;;;;;;;;;20.70;55.80;;;;;;5030637;28;1310;-70
2021/04/16 16:10:46;;;;;;;;;;;20.80;55.90;;;;;;5013762;28;1152;-70
2021/04/16 16:13:15;;;;;;;;;;;20.70;55.90;;;;;;5013579;28;1919;-70
2021/04/16 16:15:41;;;;;;;;;;;20.70;55.90;;;;;;4994990;28;1480;-70
2021/04/16 16:18:08;;;;;;;;;;;20.70;56.00;;;;;;5007380;28;1368;-70
2021/04/16 16:20:34;;;;;;;;;;;20.70;56.00;;;;;;5013657;28;1186;-70
2021/04/16 16:22:59;;;;;;;;;;;20.70;56.00;;;;;;5031445;28;1152;-70
2021/04/16 16:25:25;;;;;;;;;;;20.70;56.10;;;;;;5009977;28;1148;-70
2021/04/16 16:27:51;;;;;;;;;;;20.70;56.10;;;;;;5025381;28;1068;-70
2021/04/16 16:30:18;;;;;;;;;;;20.60;56.10;;;;;;5013527;28;1196;-70
2021/04/16 16:32:43;;;;;;;;;;;20.60;56.10;;;;;;4996971;28;1959;-70
2021/04/16 16:35:10;;;;;;;;;;;20.60;56.20;;;;;;5013453;28;1089;-70
2021/04/16 16:37:36;;;;;;;;;;;20.60;56.20;;;;;;5016625;28;1124;-70
2021/04/16 16:40:02;;;;;;;;;;;20.60;56.20;;;;;;5034919;28;1240;-70
2021/04/16 16:42:27;;;;;;;;;;;20.60;56.20;;;;;;5017312;28;1128;-70
2021/04/16 16:44:53;;;;;;;;;;;20.50;56.20;;;;;;5035301;28;1077;-70